Geary, Oklahoma
Current Conditions -  °F | °C
As of 6:55 AM on Thursday 27 Nov 2014 (Local Time) from KJWG Reporting Station
Clear Clear  
Wind Chill: 24°   Ceiling: Unl
Heat Index: 24°   Visibility: 10mi
Dew Point: 23°   Wind: 0mph
Humidity: 96%   Direction: NA
Pressure: 30.5"   Gusts: NA
Location:  35.63°N, 98.32°W
Report Text: KJWG 271255Z AUTO 00000KT 10SM CLR M04/M05 A3050 RMK AO2 T10451051
Loading
Personal Weather Stations






























Interactive Weather Map New forecast layout! Learn more

10-Day Weather Forecast

Advertisements
Track Severe Weather on mobile